Pagrindinis puslapis
METAR-TAF:

METAR-TAF

Oro uostai :

Vladikaukazas, Rusija

platuma: 43-12-18N, ilguma: 044-36-24E, Aukštis: 510 m

Dabartinis oras

Ataskaita buvo paskelbta 38 minutes, ne 07:30 UTC
Vėjas 4 kt iš Vakarų
Temperatūra 27°C
Drėgmė 48%
Slėgis 1013 hPa
Matomumas 10 km arba daugiau

METAR: URMO 140730Z 26002MPS 9999 NSC 27/15 Q1013 R09/010070 NOSIG RMK QFE716/0955

Laikas: 11:08 (08:08 UTC)

Prognozė

Ataskaita buvo paskelbta 3 valandos ir 8 minutes, ne 05:00 UTC
Prognozė galioja nuo 14 metu 06 UTC su 14 metu 15 UTC
Vėjas 6 kt iš Rytų/Šiaurės Rytų su gūsio iki 16 kt
Matomumas 10 km arba daugiau
Išsisklaidę debesys ne aukštis 5500 ft

TAF: URMO 140500Z 1406/1415 07003G08MPS 9999 SCT055

Orai ataskaitas ir orų prognozės (METAR, TAF).

turimą stotys yra geltonos ir raudonos taškus žemėlapyje.

Perkelti pele per norėdami pamatyti stoties vardą.

Tada spustelėkite, norėdami matyti oro stebėjimo ir prognozės.

Norėdami pakeisti žemėlapį: spustelėkite ant žalios mygtukų su juodo kryžiaus žemyn,; žalią mygtuką su brūkšneliu, jei norite nutolinti; arba žalių rodyklių gretimoms žemėlapius.


METAR-TAF: